Liberty of The Seas — C6VQ8 — position and weather

sailwx.info

Track history (hours):
 
Tides and Currents Weather Stations Pressure Air Temp Water Temp Dewpoint Dewpoint Depression Visibility Wind Speed Wind Dir Waves Ship Positions

Liberty of The Seas

Last reported at 2019-Sep-17 01:00 UTC. Time now 2019-Sep-17 08:20 UTC.
Position N 23°12' W 088°00'.

Type: Passenger vessel. MMSI: 309436000.

Wind from 110 at 5 knots

Barometer 1015.0 mb
Air temperature 28.6 ° C
Visibility: greater than 10.8 NM

Date/timePositionNaut miles runAvg speedWind from/ knotsBaromVisibWave heightAir tempDewpointWater temp
2019-Sep-17 01:00N 23°12' W 088°00'28820.6 110 / 51015.010.8 28.6
2019-Sep-16 11:00N 26°48' W 091°30'21917.4 210 / 191012.010.8 28.0
2019-Sep-15 22:26N 29°15' W 094°34'511.9
2019-Sep-15 22:00N 29°19' W 094°38'612.1
2019-Sep-15 21:30N 29°21' W 094°45'3 6.9
2019-Sep-15 21:00N 29°19' W 094°48'0 0.0
2019-Sep-15 20:30N 29°19' W 094°48'0 0.0
2019-Sep-15 20:00N 29°19' W 094°48'0 0.0
2019-Sep-15 19:30N 29°19' W 094°48'0 0.0
2019-Sep-15 19:00N 29°19' W 094°48'0 0.0
2019-Sep-15 18:30N 29°19' W 094°48'0 0.0
2019-Sep-15 17:45N 29°19' W 094°48'0 0.0
2019-Sep-15 17:30N 29°19' W 094°48'0 0.0
2019-Sep-15 17:00N 29°19' W 094°48'0 0.0
2019-Sep-15 16:30N 29°19' W 094°48'0 0.0
2019-Sep-15 16:00N 29°19' W 094°48'0 0.0
2019-Sep-15 15:30N 29°19' W 094°48'0 0.0
2019-Sep-15 15:00N 29°19' W 094°48'0 0.0
2019-Sep-15 14:30N 29°19' W 094°48'0 0.0
2019-Sep-15 14:00N 29°19' W 094°48'0 0.0
2019-Sep-15 13:30N 29°19' W 094°48'0 0.0
2019-Sep-15 13:00N 29°19' W 094°48'0 0.0
2019-Sep-15 12:30N 29°19' W 094°48'0 0.0
2019-Sep-15 12:00N 29°19' W 094°48'0 0.0
2019-Sep-15 11:30N 29°19' W 094°48'0 0.0
2019-Sep-15 11:00N 29°19' W 094°48'1 2.4
2019-Sep-15 10:30N 29°19' W 094°47'4 9.0
2019-Sep-15 10:01N 29°21' W 094°42'714.0
2019-Sep-15 09:30N 29°17' W 094°35'713.5
2019-Sep-15 09:00N 29°13' W 094°29'714.0
2019-Sep-15 08:29N 29°09' W 094°22'1815.9
2019-Sep-15 07:20N 28°58' W 094°05'65419.0
2019-Sep-13 21:00N 21°48' W 085°00'   050 / 151010.010.8 29.4 30.0
2019-Sep-11 14:00N 19°18' W 081°36'28719.1 060 / 201013.010.8 28.7
2019-Sep-10 23:00N 20°36' W 086°30'2327.6 090 / 141015.010.8 18.6
2019-Sep-10 22:09N 20°36' W 086°55'321.4
2019-Sep-10 22:00N 20°34' W 086°57'5 9.4
2019-Sep-10 21:28N 20°29' W 086°59'0 0.0
2019-Sep-10 20:58N 20°29' W 086°59'0 0.0
2019-Sep-10 20:28N 20°29' W 086°59'0 0.0
2019-Sep-10 19:58N 20°29' W 086°59'0 0.0
2019-Sep-10 19:28N 20°29' W 086°59'0 0.0
2019-Sep-10 18:58N 20°29' W 086°59'0 0.0
2019-Sep-10 18:28N 20°29' W 086°59'0 0.0
2019-Sep-10 17:55N 20°29' W 086°59'0 0.0
2019-Sep-10 17:28N 20°29' W 086°59'0 0.0
2019-Sep-10 16:58N 20°29' W 086°59'0 0.0
2019-Sep-10 16:28N 20°29' W 086°59'0 0.0
2019-Sep-10 15:58N 20°29' W 086°59'0 0.0
2019-Sep-10 15:28N 20°29' W 086°59'0 0.0
2019-Sep-10 14:58N 20°29' W 086°59'0 0.0
2019-Sep-10 14:28N 20°29' W 086°59'0 0.0
2019-Sep-10 13:58N 20°29' W 086°59'0 0.0
2019-Sep-10 13:28N 20°29' W 086°59'0 0.0
2019-Sep-10 12:58N 20°29' W 086°59'0 0.0
2019-Sep-10 12:28N 20°29' W 086°59'0 0.0
2019-Sep-10 11:58N 20°29' W 086°59'1 1.3
2019-Sep-10 11:30N 20°29' W 086°59'713.8
2019-Sep-10 11:00N 20°36' W 086°56'63918.3
2019-Sep-09 00:04N 28°60' W 094°08'315.7
2019-Sep-08 23:52N 29°02' W 094°11'615.2
2019-Sep-08 23:29N 29°05' W 094°17'714.8
2019-Sep-08 22:59N 29°08' W 094°24'715.0
2019-Sep-08 22:30N 29°13' W 094°31'714.9
2019-Sep-08 22:00N 29°18' W 094°37'613.0
2019-Sep-08 21:30N 29°21' W 094°44'4 8.4
2019-Sep-08 21:00N 29°19' W 094°48'0 0.2
2019-Sep-08 20:29N 29°19' W 094°48'0 0.0
2019-Sep-08 19:59N 29°19' W 094°48'0 0.0
2019-Sep-08 19:29N 29°19' W 094°48'0 0.0
2019-Sep-08 18:59N 29°19' W 094°48'0 0.0
2019-Sep-08 18:29N 29°19' W 094°48'0 0.0
2019-Sep-08 17:59N 29°19' W 094°48'0 0.0
2019-Sep-08 17:29N 29°19' W 094°48'0 0.0
2019-Sep-08 16:59N 29°19' W 094°48'0 0.0
2019-Sep-08 16:29N 29°19' W 094°48'0 0.0
2019-Sep-08 15:59N 29°19' W 094°48'0 0.0
2019-Sep-08 15:29N 29°19' W 094°48'0 0.0
2019-Sep-08 14:59N 29°19' W 094°48'0 0.0
2019-Sep-08 14:29N 29°19' W 094°48'0 0.0
2019-Sep-08 13:59N 29°19' W 094°48'0 0.0
2019-Sep-08 13:26N 29°19' W 094°48'0 0.0
2019-Sep-08 12:59N 29°19' W 094°48'0 0.0
2019-Sep-08 12:26N 29°19' W 094°48'0 0.0
2019-Sep-08 11:59N 29°19' W 094°48'0 0.0
2019-Sep-08 11:29N 29°19' W 094°48'0 0.7
2019-Sep-08 11:00N 29°19' W 094°48'1 2.6
2019-Sep-08 10:30N 29°20' W 094°47'611.6
2019-Sep-08 10:00N 29°20' W 094°40'612.9
2019-Sep-08 09:30N 29°16' W 094°34'815.8
2019-Sep-08 08:59N 29°12' W 094°26'816.0
2019-Sep-08 08:30N 29°07' W 094°19'815.9
2019-Sep-08 08:00N 29°03' W 094°11'816.1
2019-Sep-08 07:30N 28°58' W 094°04'816.4
2019-Sep-08 07:00N 28°54' W 093°56'917.1
2019-Sep-08 06:30N 28°49' W 093°48'918.9
2019-Sep-08 06:00N 28°43' W 093°39'1019.7
2019-Sep-08 05:30N 28°37' W 093°30'1019.9
2019-Sep-08 05:00N 28°31' W 093°21'1019.8
2019-Sep-08 04:30N 28°26' W 093°12'1019.6
2019-Sep-08 04:00N 28°20' W 093°03'1019.9
2019-Sep-08 03:30N 28°14' W 092°54'1019.9
2019-Sep-08 03:00N 28°06' W 092°46'1519.5
2019-Sep-08 02:13N 27°54' W 092°36'418.7
2019-Sep-08 02:00N 27°51' W 092°34'6922.7
2019-Sep-07 23:00N 27°00' W 091°42'   010 / 131015.010.8 29.4 29.8
Track history (hours):
 
Tides and Currents Weather Stations Pressure Air Temp Water Temp Dewpoint Dewpoint Depression Visibility Wind Speed Wind Dir Waves Ship Positions

Liberty of The Seas

Last reported at 2019-Sep-17 01:00 UTC. Time now 2019-Sep-17 08:20 UTC.
Position N 23°12' W 088°00'.

Type: Passenger vessel. MMSI: 309436000.

Wind from 110 at 5 knots

Barometer 1015.0 mb
Air temperature 28.6 ° C
Visibility: greater than 10.8 NM

Date/timePositionNaut miles runAvg speedWind from/ knotsBaromVisibWave heightAir tempDewpointWater temp
2019-Sep-17 01:00N 23°12' W 088°00'28820.6 110 / 51015.010.8 28.6
2019-Sep-16 11:00N 26°48' W 091°30'21917.4 210 / 191012.010.8 28.0
2019-Sep-15 22:26N 29°15' W 094°34'511.9
2019-Sep-15 22:00N 29°19' W 094°38'612.1
2019-Sep-15 21:30N 29°21' W 094°45'3 6.9
2019-Sep-15 21:00N 29°19' W 094°48'0 0.0
2019-Sep-15 20:30N 29°19' W 094°48'0 0.0
2019-Sep-15 20:00N 29°19' W 094°48'0 0.0
2019-Sep-15 19:30N 29°19' W 094°48'0 0.0
2019-Sep-15 19:00N 29°19' W 094°48'0 0.0
2019-Sep-15 18:30N 29°19' W 094°48'0 0.0
2019-Sep-15 17:45N 29°19' W 094°48'0 0.0
2019-Sep-15 17:30N 29°19' W 094°48'0 0.0
2019-Sep-15 17:00N 29°19' W 094°48'0 0.0
2019-Sep-15 16:30N 29°19' W 094°48'0 0.0
2019-Sep-15 16:00N 29°19' W 094°48'0 0.0
2019-Sep-15 15:30N 29°19' W 094°48'0 0.0
2019-Sep-15 15:00N 29°19' W 094°48'0 0.0
2019-Sep-15 14:30N 29°19' W 094°48'0 0.0
2019-Sep-15 14:00N 29°19' W 094°48'0 0.0
2019-Sep-15 13:30N 29°19' W 094°48'0 0.0
2019-Sep-15 13:00N 29°19' W 094°48'0 0.0
2019-Sep-15 12:30N 29°19' W 094°48'0 0.0
2019-Sep-15 12:00N 29°19' W 094°48'0 0.0
2019-Sep-15 11:30N 29°19' W 094°48'0 0.0
2019-Sep-15 11:00N 29°19' W 094°48'1 2.4
2019-Sep-15 10:30N 29°19' W 094°47'4 9.0
2019-Sep-15 10:01N 29°21' W 094°42'714.0
2019-Sep-15 09:30N 29°17' W 094°35'713.5
2019-Sep-15 09:00N 29°13' W 094°29'714.0
2019-Sep-15 08:29N 29°09' W 094°22'1815.9
2019-Sep-15 07:20N 28°58' W 094°05'65419.0
2019-Sep-13 21:00N 21°48' W 085°00'   050 / 151010.010.8 29.4 30.0
2019-Sep-11 14:00N 19°18' W 081°36'28719.1 060 / 201013.010.8 28.7
2019-Sep-10 23:00N 20°36' W 086°30'2327.6 090 / 141015.010.8 18.6
2019-Sep-10 22:09N 20°36' W 086°55'321.4
2019-Sep-10 22:00N 20°34' W 086°57'5 9.4
2019-Sep-10 21:28N 20°29' W 086°59'0 0.0
2019-Sep-10 20:58N 20°29' W 086°59'0 0.0
2019-Sep-10 20:28N 20°29' W 086°59'0 0.0
2019-Sep-10 19:58N 20°29' W 086°59'0 0.0
2019-Sep-10 19:28N 20°29' W 086°59'0 0.0
2019-Sep-10 18:58N 20°29' W 086°59'0 0.0
2019-Sep-10 18:28N 20°29' W 086°59'0 0.0
2019-Sep-10 17:55N 20°29' W 086°59'0 0.0
2019-Sep-10 17:28N 20°29' W 086°59'0 0.0
2019-Sep-10 16:58N 20°29' W 086°59'0 0.0
2019-Sep-10 16:28N 20°29' W 086°59'0 0.0
2019-Sep-10 15:58N 20°29' W 086°59'0 0.0
2019-Sep-10 15:28N 20°29' W 086°59'0 0.0
2019-Sep-10 14:58N 20°29' W 086°59'0 0.0
2019-Sep-10 14:28N 20°29' W 086°59'0 0.0
2019-Sep-10 13:58N 20°29' W 086°59'0 0.0
2019-Sep-10 13:28N 20°29' W 086°59'0 0.0
2019-Sep-10 12:58N 20°29' W 086°59'0 0.0
2019-Sep-10 12:28N 20°29' W 086°59'0 0.0
2019-Sep-10 11:58N 20°29' W 086°59'1 1.3
2019-Sep-10 11:30N 20°29' W 086°59'713.8
2019-Sep-10 11:00N 20°36' W 086°56'63918.3
2019-Sep-09 00:04N 28°60' W 094°08'315.7
2019-Sep-08 23:52N 29°02' W 094°11'615.2
2019-Sep-08 23:29N 29°05' W 094°17'714.8
2019-Sep-08 22:59N 29°08' W 094°24'715.0
2019-Sep-08 22:30N 29°13' W 094°31'714.9
2019-Sep-08 22:00N 29°18' W 094°37'613.0
2019-Sep-08 21:30N 29°21' W 094°44'4 8.4
2019-Sep-08 21:00N 29°19' W 094°48'0 0.2
2019-Sep-08 20:29N 29°19' W 094°48'0 0.0
2019-Sep-08 19:59N 29°19' W 094°48'0 0.0
2019-Sep-08 19:29N 29°19' W 094°48'0 0.0
2019-Sep-08 18:59N 29°19' W 094°48'0 0.0
2019-Sep-08 18:29N 29°19' W 094°48'0 0.0
2019-Sep-08 17:59N 29°19' W 094°48'0 0.0
2019-Sep-08 17:29N 29°19' W 094°48'0 0.0
2019-Sep-08 16:59N 29°19' W 094°48'0 0.0
2019-Sep-08 16:29N 29°19' W 094°48'0 0.0
2019-Sep-08 15:59N 29°19' W 094°48'0 0.0
2019-Sep-08 15:29N 29°19' W 094°48'0 0.0
2019-Sep-08 14:59N 29°19' W 094°48'0 0.0
2019-Sep-08 14:29N 29°19' W 094°48'0 0.0
2019-Sep-08 13:59N 29°19' W 094°48'0 0.0
2019-Sep-08 13:26N 29°19' W 094°48'0 0.0
2019-Sep-08 12:59N 29°19' W 094°48'0 0.0
2019-Sep-08 12:26N 29°19' W 094°48'0 0.0
2019-Sep-08 11:59N 29°19' W 094°48'0 0.0
2019-Sep-08 11:29N 29°19' W 094°48'0 0.7
2019-Sep-08 11:00N 29°19' W 094°48'1 2.6
2019-Sep-08 10:30N 29°20' W 094°47'611.6
2019-Sep-08 10:00N 29°20' W 094°40'612.9
2019-Sep-08 09:30N 29°16' W 094°34'815.8
2019-Sep-08 08:59N 29°12' W 094°26'816.0
2019-Sep-08 08:30N 29°07' W 094°19'815.9
2019-Sep-08 08:00N 29°03' W 094°11'816.1
2019-Sep-08 07:30N 28°58' W 094°04'816.4
2019-Sep-08 07:00N 28°54' W 093°56'917.1
2019-Sep-08 06:30N 28°49' W 093°48'918.9
2019-Sep-08 06:00N 28°43' W 093°39'1019.7
2019-Sep-08 05:30N 28°37' W 093°30'1019.9
2019-Sep-08 05:00N 28°31' W 093°21'1019.8
2019-Sep-08 04:30N 28°26' W 093°12'1019.6
2019-Sep-08 04:00N 28°20' W 093°03'1019.9
2019-Sep-08 03:30N 28°14' W 092°54'1019.9
2019-Sep-08 03:00N 28°06' W 092°46'1519.5
2019-Sep-08 02:13N 27°54' W 092°36'418.7
2019-Sep-08 02:00N 27°51' W 092°34'6922.7
2019-Sep-07 23:00N 27°00' W 091°42'   010 / 131015.010.8 29.4 29.8

Dump ship's entire track history